createdAt,value
2018-06-20T00:00:52.165Z,19.12
2018-06-20T00:01:52.163Z,19.04
2018-06-20T00:02:52.166Z,18.95
2018-06-20T00:03:52.260Z,18.96
2018-06-20T00:04:52.169Z,18.98
2018-06-20T00:05:52.171Z,19.00
2018-06-20T00:06:52.175Z,19.00
2018-06-20T00:07:52.176Z,18.95
2018-06-20T00:08:52.179Z,18.95
2018-06-20T00:09:52.182Z,18.92
2018-06-20T00:10:52.187Z,18.95
2018-06-20T00:11:52.186Z,18.92
2018-06-20T00:12:52.186Z,18.90
2018-06-20T00:13:52.192Z,18.88
2018-06-20T00:14:52.191Z,18.93
2018-06-20T00:15:52.194Z,18.90
2018-06-20T00:16:52.238Z,18.88
2018-06-20T00:17:52.197Z,18.90
2018-06-20T00:18:52.202Z,18.90
2018-06-20T00:19:52.201Z,18.92
2018-06-20T00:20:52.207Z,18.84
2018-06-20T00:21:52.206Z,18.81
2018-06-20T00:22:52.209Z,18.80
2018-06-20T00:23:52.211Z,18.81
2018-06-20T00:24:52.213Z,18.81
2018-06-20T00:25:52.217Z,18.73
2018-06-20T00:26:52.219Z,18.77
2018-06-20T00:27:52.221Z,18.77
2018-06-20T00:28:52.222Z,18.70
2018-06-20T00:29:52.224Z,18.73
2018-06-20T00:30:52.228Z,18.65
2018-06-20T00:31:52.231Z,18.70
2018-06-20T00:32:52.229Z,18.73
2018-06-20T00:33:52.232Z,18.70
2018-06-20T00:34:52.235Z,18.65
2018-06-20T00:35:52.241Z,18.70
2018-06-20T00:36:52.240Z,18.66
2018-06-20T00:37:52.240Z,18.59
2018-06-20T00:38:52.253Z,18.71
2018-06-20T00:39:52.245Z,18.74
2018-06-20T00:40:52.252Z,18.63
2018-06-20T00:41:52.249Z,18.71
2018-06-20T00:42:52.261Z,18.62
2018-06-20T00:43:52.259Z,18.70
2018-06-20T00:44:52.257Z,18.62
2018-06-20T00:45:52.261Z,18.63
2018-06-20T00:46:52.260Z,18.65
2018-06-20T00:47:52.262Z,18.60
2018-06-20T00:48:52.263Z,18.56
2018-06-20T00:49:52.265Z,18.59
2018-06-20T00:50:52.267Z,18.74
2018-06-20T00:51:52.324Z,18.71
2018-06-20T00:52:52.274Z,18.59
2018-06-20T00:53:52.276Z,18.62
2018-06-20T00:54:52.277Z,18.59
2018-06-20T00:55:52.285Z,18.62
2018-06-20T00:56:52.281Z,18.56
2018-06-20T00:57:52.282Z,18.60
2018-06-20T00:58:52.287Z,18.62
2018-06-20T00:59:52.307Z,18.60
2018-06-20T01:00:52.287Z,18.56
2018-06-20T01:01:52.289Z,18.58
2018-06-20T01:02:52.295Z,18.52
2018-06-20T01:03:52.295Z,18.52
2018-06-20T01:04:52.297Z,18.58
2018-06-20T01:05:52.298Z,18.53
2018-06-20T01:06:52.304Z,18.53
2018-06-20T01:07:52.303Z,18.53
2018-06-20T01:08:52.303Z,18.49
2018-06-20T01:09:52.308Z,18.49
2018-06-20T01:10:52.307Z,18.45
2018-06-20T01:11:52.447Z,18.43
2018-06-20T01:12:52.314Z,18.49
2018-06-20T01:13:52.316Z,18.49
2018-06-20T01:14:52.319Z,18.58
2018-06-20T01:15:52.321Z,18.41
2018-06-20T01:16:52.321Z,18.43
2018-06-20T01:17:52.324Z,18.45
2018-06-20T01:18:52.329Z,18.49
2018-06-20T01:19:52.326Z,18.49
2018-06-20T01:20:52.328Z,18.47
2018-06-20T01:21:52.334Z,18.52
2018-06-20T01:22:52.331Z,18.50
2018-06-20T01:23:52.336Z,18.47
2018-06-20T01:24:52.335Z,18.50
2018-06-20T01:25:52.338Z,18.49
2018-06-20T01:26:52.339Z,18.47
2018-06-20T01:27:52.342Z,18.49
2018-06-20T01:28:52.347Z,18.44
2018-06-20T01:29:52.348Z,18.49
2018-06-20T01:30:52.355Z,18.49
2018-06-20T01:31:52.350Z,18.50
2018-06-20T01:32:52.353Z,18.44
2018-06-20T01:33:52.353Z,18.44
2018-06-20T01:34:52.358Z,18.43
2018-06-20T01:35:52.358Z,18.45
2018-06-20T01:36:52.359Z,18.50
2018-06-20T01:37:52.361Z,18.47
2018-06-20T01:38:52.363Z,18.43
2018-06-20T01:39:52.366Z,18.50
2018-06-20T01:40:52.370Z,18.44
2018-06-20T01:41:52.368Z,18.44
2018-06-20T01:42:52.374Z,18.50
2018-06-20T01:43:52.375Z,18.40
2018-06-20T01:44:52.396Z,18.40
2018-06-20T01:45:52.382Z,18.44
2018-06-20T01:46:52.379Z,18.45
2018-06-20T01:47:52.382Z,18.35
2018-06-20T01:48:52.383Z,18.52
2018-06-20T01:49:52.385Z,18.49
2018-06-20T01:50:52.400Z,18.47
2018-06-20T01:51:52.389Z,18.52
2018-06-20T01:52:52.390Z,18.52
2018-06-20T01:53:52.394Z,18.55
2018-06-20T01:54:52.395Z,18.53
2018-06-20T01:55:52.397Z,18.50
2018-06-20T01:56:52.406Z,18.52
2018-06-20T01:57:52.403Z,18.53
2018-06-20T01:58:52.403Z,18.60
2018-06-20T01:59:52.404Z,18.62
2018-06-20T02:00:52.406Z,18.58
2018-06-20T02:01:52.408Z,18.58
2018-06-20T02:02:52.412Z,18.55
2018-06-20T02:03:52.415Z,18.50
2018-06-20T02:04:52.415Z,18.52
2018-06-20T02:05:52.418Z,18.55
2018-06-20T02:06:52.427Z,18.53
2018-06-20T02:07:52.426Z,18.55
2018-06-20T02:08:52.422Z,18.56
2018-06-20T02:09:52.427Z,18.58
2018-06-20T02:10:52.426Z,18.55
2018-06-20T02:11:52.432Z,18.56
2018-06-20T02:12:52.429Z,18.55
2018-06-20T02:13:52.432Z,18.58
2018-06-20T02:14:52.433Z,18.55
2018-06-20T02:15:52.436Z,18.58
2018-06-20T02:16:52.450Z,18.55
2018-06-20T02:17:52.441Z,18.55
2018-06-20T02:18:52.441Z,18.56
2018-06-20T02:19:52.444Z,18.56
2018-06-20T02:20:52.445Z,18.58
2018-06-20T02:21:52.448Z,18.56
2018-06-20T02:22:52.449Z,18.52
2018-06-20T02:23:52.454Z,18.59
2018-06-20T02:24:52.452Z,18.50
2018-06-20T02:25:52.457Z,18.55
2018-06-20T02:26:52.457Z,18.52
2018-06-20T02:27:52.466Z,18.53
2018-06-20T02:28:52.468Z,18.49
2018-06-20T02:29:52.473Z,18.49
2018-06-20T02:30:52.471Z,18.49
2018-06-20T02:31:52.468Z,18.44
2018-06-20T02:32:52.470Z,18.50
2018-06-20T02:33:52.474Z,18.43
2018-06-20T02:34:52.479Z,18.49
2018-06-20T02:35:52.475Z,18.43
2018-06-20T02:36:52.479Z,18.47
2018-06-20T02:37:52.482Z,18.45
2018-06-20T02:38:52.480Z,18.44
2018-06-20T02:39:52.487Z,18.50
2018-06-20T02:40:52.483Z,18.43
2018-06-20T02:41:52.489Z,18.38
2018-06-20T02:42:52.488Z,18.38
2018-06-20T02:43:52.488Z,18.41
2018-06-20T02:44:52.492Z,18.43
2018-06-20T02:45:52.496Z,18.38
2018-06-20T02:46:52.496Z,18.41
2018-06-20T02:47:52.496Z,18.35
2018-06-20T02:48:52.499Z,18.43
2018-06-20T02:49:52.503Z,18.41
2018-06-20T02:50:52.502Z,18.41
2018-06-20T02:51:52.507Z,18.38
2018-06-20T02:52:52.521Z,18.38
2018-06-20T02:53:52.511Z,18.45
2018-06-20T02:54:52.511Z,18.44
2018-06-20T02:55:52.515Z,18.43
2018-06-20T02:56:52.512Z,18.40
2018-06-20T02:57:52.519Z,18.44
2018-06-20T02:58:52.519Z,18.40
2018-06-20T02:59:52.519Z,18.45
2018-06-20T03:00:52.519Z,18.41
2018-06-20T03:01:52.523Z,18.44
2018-06-20T03:02:52.524Z,18.40
2018-06-20T03:03:52.529Z,18.43
2018-06-20T03:04:52.531Z,18.37
2018-06-20T03:05:52.530Z,18.41
2018-06-20T03:06:52.531Z,18.50
2018-06-20T03:07:52.534Z,18.41
2018-06-20T03:08:52.535Z,18.41
2018-06-20T03:09:52.536Z,18.38
2018-06-20T03:10:52.545Z,18.38
2018-06-20T03:11:52.543Z,18.38
2018-06-20T03:12:52.542Z,18.35
2018-06-20T03:13:52.544Z,18.40
2018-06-20T03:14:52.555Z,18.38
2018-06-20T03:15:52.549Z,18.35
2018-06-20T03:16:52.551Z,18.38
2018-06-20T03:17:52.556Z,18.35
2018-06-20T03:18:52.554Z,18.31
2018-06-20T03:19:52.555Z,18.29
2018-06-20T03:20:52.562Z,18.29
2018-06-20T03:21:52.559Z,18.38
2018-06-20T03:22:52.561Z,18.40
2018-06-20T03:23:52.563Z,18.35
2018-06-20T03:24:52.564Z,18.31
2018-06-20T03:25:52.566Z,18.26
2018-06-20T03:26:52.568Z,18.34
2018-06-20T03:27:52.570Z,18.28
2018-06-20T03:28:52.571Z,18.31
2018-06-20T03:29:52.576Z,18.23
2018-06-20T03:30:52.576Z,18.26
2018-06-20T03:31:52.579Z,18.26
2018-06-20T03:32:52.578Z,18.26
2018-06-20T03:33:52.581Z,18.26
2018-06-20T03:34:52.582Z,18.28
2018-06-20T03:35:52.585Z,18.22
2018-06-20T03:36:52.584Z,18.23
2018-06-20T03:37:52.591Z,18.25
2018-06-20T03:38:52.588Z,18.31
2018-06-20T03:39:52.592Z,18.29
2018-06-20T03:40:52.591Z,18.31
2018-06-20T03:41:52.599Z,18.31
2018-06-20T03:42:52.602Z,18.31
2018-06-20T03:43:52.597Z,18.34
2018-06-20T03:44:52.600Z,18.31
2018-06-20T03:45:52.600Z,18.31
2018-06-20T03:46:52.601Z,18.38
2018-06-20T03:47:52.604Z,18.31
2018-06-20T03:48:52.607Z,18.37
2018-06-20T03:49:52.610Z,18.31
2018-06-20T03:50:52.610Z,18.40
2018-06-20T03:51:52.618Z,18.34
2018-06-20T03:52:52.613Z,18.34
2018-06-20T03:53:52.617Z,18.37
2018-06-20T03:54:52.652Z,18.38
2018-06-20T03:55:52.625Z,18.40
2018-06-20T03:56:52.619Z,18.38
2018-06-20T03:57:52.622Z,18.31
2018-06-20T03:58:52.621Z,18.43
2018-06-20T03:59:52.628Z,18.44
2018-06-20T04:00:52.627Z,18.45
2018-06-20T04:01:52.626Z,18.50
2018-06-20T04:02:52.628Z,18.34
2018-06-20T04:03:52.633Z,18.50
2018-06-20T04:04:52.631Z,18.52
2018-06-20T04:05:52.637Z,18.53
2018-06-20T04:06:52.635Z,18.53
2018-06-20T04:07:52.637Z,18.52
2018-06-20T04:08:52.641Z,18.52
2018-06-20T04:09:52.659Z,18.59
2018-06-20T04:10:52.643Z,18.65
2018-06-20T04:11:52.652Z,18.58
2018-06-20T04:12:52.646Z,18.60
2018-06-20T04:13:52.647Z,18.60
2018-06-20T04:14:52.651Z,18.62
2018-06-20T04:15:52.653Z,18.62
2018-06-20T04:16:52.653Z,18.58
2018-06-20T04:17:52.655Z,18.56
2018-06-20T04:18:52.659Z,18.71
2018-06-20T04:19:52.661Z,18.68
2018-06-20T04:20:52.659Z,18.74
2018-06-20T04:21:52.663Z,18.71
2018-06-20T04:22:52.668Z,18.71
2018-06-20T04:23:52.670Z,18.77
2018-06-20T04:24:52.667Z,18.70
2018-06-20T04:25:52.669Z,18.78
2018-06-20T04:26:52.672Z,18.74
2018-06-20T04:27:52.674Z,18.74
2018-06-20T04:28:52.677Z,18.81
2018-06-20T04:29:52.677Z,18.83
2018-06-20T04:30:52.679Z,18.75
2018-06-20T04:31:52.682Z,18.83
2018-06-20T04:32:52.690Z,18.90
2018-06-20T04:33:52.689Z,18.93
2018-06-20T04:34:52.693Z,18.89
2018-06-20T04:35:52.689Z,18.84
2018-06-20T04:36:52.698Z,18.96
2018-06-20T04:37:52.693Z,18.99
2018-06-20T04:38:52.695Z,19.00
2018-06-20T04:39:52.700Z,18.96
2018-06-20T04:40:52.701Z,18.99
2018-06-20T04:41:52.702Z,18.99
2018-06-20T04:42:52.705Z,19.02
2018-06-20T04:43:52.704Z,19.07
2018-06-20T04:44:52.711Z,19.02
2018-06-20T04:45:52.709Z,18.95
2018-06-20T04:46:52.711Z,19.07
2018-06-20T04:47:52.713Z,19.02
2018-06-20T04:48:52.715Z,19.12
2018-06-20T04:49:52.718Z,19.04
2018-06-20T04:50:52.720Z,18.98
2018-06-20T04:51:52.723Z,19.12
2018-06-20T04:52:52.724Z,19.11
2018-06-20T04:53:52.731Z,19.11
2018-06-20T04:54:52.730Z,19.16
2018-06-20T04:55:52.739Z,19.14
2018-06-20T04:56:52.733Z,19.12
2018-06-20T04:57:52.740Z,19.07
2018-06-20T04:58:52.736Z,19.14
2018-06-20T04:59:52.740Z,19.14
2018-06-20T05:00:52.747Z,19.19
2018-06-20T05:01:52.744Z,19.26
2018-06-20T05:02:52.746Z,19.22
2018-06-20T05:03:52.748Z,19.30
2018-06-20T05:04:52.755Z,19.29
2018-06-20T05:05:52.755Z,19.36
2018-06-20T05:06:52.764Z,19.40
2018-06-20T05:07:52.760Z,19.39
2018-06-20T05:08:52.820Z,19.33
2018-06-20T05:09:52.762Z,19.36
2018-06-20T05:10:52.763Z,19.48
2018-06-20T05:11:52.786Z,19.47
2018-06-20T05:12:52.769Z,19.48
2018-06-20T05:13:52.772Z,19.56
2018-06-20T05:14:52.776Z,19.58
2018-06-20T05:15:52.776Z,19.55
2018-06-20T05:16:52.779Z,19.56
2018-06-20T05:17:52.783Z,19.64
2018-06-20T05:18:52.821Z,19.66
2018-06-20T05:19:52.787Z,19.69
2018-06-20T05:20:52.788Z,19.70
2018-06-20T05:21:52.790Z,19.73
2018-06-20T05:22:52.793Z,19.74
2018-06-20T05:23:52.795Z,19.67
2018-06-20T05:24:52.797Z,19.79
2018-06-20T05:25:52.806Z,19.79
2018-06-20T05:26:52.802Z,19.79
2018-06-20T05:27:52.806Z,19.81
2018-06-20T05:28:52.806Z,19.84
2018-06-20T05:29:52.810Z,19.86
2018-06-20T05:30:52.813Z,19.84
2018-06-20T05:31:52.816Z,20.21
2018-06-20T05:32:52.845Z,20.74
2018-06-20T05:33:52.820Z,21.15
2018-06-20T05:34:52.822Z,21.50
2018-06-20T05:35:52.826Z,21.30
2018-06-20T05:36:52.828Z,21.24
2018-06-20T05:37:52.832Z,21.12
2018-06-20T05:38:52.833Z,21.05
2018-06-20T05:39:52.859Z,20.99
2018-06-20T05:40:52.839Z,20.88
2018-06-20T05:41:52.852Z,20.95
2018-06-20T05:42:52.856Z,21.02
2018-06-20T05:43:52.850Z,20.87
2018-06-20T05:44:52.853Z,20.93
2018-06-20T05:45:52.855Z,20.88
2018-06-20T05:46:52.858Z,20.84
2018-06-20T05:47:52.862Z,20.81
2018-06-20T05:48:52.864Z,20.74
2018-06-20T05:49:52.869Z,20.85
2018-06-20T05:50:52.872Z,20.95
2018-06-20T05:51:52.874Z,20.96
2018-06-20T05:52:52.878Z,20.95
2018-06-20T05:53:52.936Z,21.06
2018-06-20T05:54:52.889Z,21.15
2018-06-20T05:55:52.887Z,21.21
2018-06-20T05:56:52.891Z,21.22
2018-06-20T05:57:52.892Z,21.18
2018-06-20T05:58:52.901Z,21.05
2018-06-20T05:59:52.900Z,20.97
2018-06-20T06:00:52.903Z,21.11
2018-06-20T06:01:52.923Z,21.02
2018-06-20T06:02:53.013Z,21.25
2018-06-20T06:03:52.913Z,21.24
2018-06-20T06:04:52.915Z,21.20
2018-06-20T06:05:52.918Z,21.21
2018-06-20T06:06:52.923Z,21.36
2018-06-20T06:07:52.929Z,21.35
2018-06-20T06:08:52.934Z,21.40
2018-06-20T06:09:52.934Z,21.45
2018-06-20T06:10:52.939Z,21.52
2018-06-20T06:11:52.942Z,21.48
2018-06-20T06:12:52.942Z,21.76
2018-06-20T06:13:52.986Z,21.89
2018-06-20T06:14:52.959Z,22.04
2018-06-20T06:15:52.959Z,22.28
2018-06-20T06:16:52.982Z,22.25
2018-06-20T06:17:52.960Z,22.50
2018-06-20T06:18:52.964Z,22.35
2018-06-20T06:19:52.969Z,22.18
2018-06-20T06:20:52.975Z,22.22
2018-06-20T06:21:53.002Z,22.29
2018-06-20T06:22:52.978Z,22.22
2018-06-20T06:23:52.982Z,22.25
2018-06-20T06:24:52.986Z,22.23
2018-06-20T06:25:53.003Z,22.14
2018-06-20T06:26:52.994Z,22.23
2018-06-20T06:27:52.998Z,22.20
2018-06-20T06:28:53.002Z,22.20
2018-06-20T06:29:53.004Z,22.23
2018-06-20T06:30:53.008Z,22.30
2018-06-20T06:31:53.014Z,22.23
2018-06-20T06:32:53.018Z,22.32
2018-06-20T06:33:53.020Z,22.39
2018-06-20T06:34:53.025Z,22.47
2018-06-20T06:35:53.035Z,22.47
2018-06-20T06:36:53.031Z,22.51
2018-06-20T06:37:53.035Z,22.44
2018-06-20T06:38:53.097Z,22.38
2018-06-20T06:39:53.043Z,22.45
2018-06-20T06:40:53.051Z,22.53
2018-06-20T06:41:53.051Z,22.66
2018-06-20T06:42:53.054Z,22.68
2018-06-20T06:43:53.101Z,22.75
2018-06-20T06:44:53.064Z,22.75
2018-06-20T06:45:53.070Z,22.76
2018-06-20T06:46:53.078Z,22.78
2018-06-20T06:47:53.080Z,22.87
2018-06-20T06:48:53.081Z,22.87
2018-06-20T06:49:53.120Z,22.83
2018-06-20T06:50:53.088Z,22.88
2018-06-20T06:51:53.095Z,22.85
2018-06-20T06:52:53.102Z,22.78
2018-06-20T06:53:53.100Z,22.93
2018-06-20T06:54:53.105Z,22.88
2018-06-20T06:55:53.108Z,22.85
2018-06-20T06:56:53.552Z,22.90
2018-06-20T06:57:53.208Z,22.91
2018-06-20T06:58:53.120Z,22.94
2018-06-20T06:59:53.125Z,22.93
2018-06-20T07:00:53.132Z,22.98
2018-06-20T07:01:53.133Z,23.02
2018-06-20T07:02:53.138Z,23.03
2018-06-20T07:03:53.141Z,23.02
2018-06-20T07:04:53.147Z,23.00
2018-06-20T07:05:53.151Z,23.12
2018-06-20T07:06:53.154Z,23.21
2018-06-20T07:07:53.160Z,23.36
2018-06-20T07:08:53.161Z,23.25
2018-06-20T07:09:53.168Z,23.34
2018-06-20T07:10:53.171Z,23.46
2018-06-20T07:11:53.175Z,23.55
2018-06-20T07:12:53.179Z,23.61
2018-06-20T07:13:53.183Z,23.73
2018-06-20T07:14:53.190Z,23.73
2018-06-20T07:15:53.192Z,23.86
2018-06-20T07:16:53.198Z,23.81
2018-06-20T07:17:53.203Z,23.93
2018-06-20T07:18:53.206Z,23.91
2018-06-20T07:19:53.211Z,23.99
2018-06-20T07:20:53.214Z,23.98
2018-06-20T07:21:53.220Z,24.02
2018-06-20T07:22:53.224Z,24.08
2018-06-20T07:23:53.229Z,24.08
2018-06-20T07:24:53.270Z,24.16
2018-06-20T07:25:53.238Z,24.18
2018-06-20T07:26:54.280Z,24.16
2018-06-20T07:27:53.248Z,24.28
2018-06-20T07:28:53.255Z,24.24
2018-06-20T07:29:53.374Z,24.33
2018-06-20T07:30:54.195Z,24.36
2018-06-20T07:31:53.318Z,24.42
2018-06-20T07:32:53.289Z,24.43
2018-06-20T07:33:53.279Z,24.48
2018-06-20T07:34:53.280Z,24.45
2018-06-20T07:35:53.416Z,24.53
2018-06-20T07:36:53.291Z,24.58
2018-06-20T07:37:53.302Z,24.66
2018-06-20T07:38:54.196Z,24.66
2018-06-20T07:39:53.305Z,24.69
2018-06-20T07:40:53.308Z,24.86
2018-06-20T07:41:53.324Z,24.89
2018-06-20T07:42:53.369Z,24.74
2018-06-20T07:43:53.323Z,24.89
2018-06-20T07:44:53.328Z,24.93
2018-06-20T07:45:53.336Z,24.81
2018-06-20T07:46:53.338Z,24.86
2018-06-20T07:47:53.392Z,24.91
2018-06-20T07:48:53.349Z,24.93
2018-06-20T07:49:53.353Z,24.91
2018-06-20T07:50:53.358Z,25.03
2018-06-20T07:51:53.363Z,25.13
2018-06-20T07:52:53.368Z,25.17
2018-06-20T07:53:53.373Z,25.26
2018-06-20T07:54:53.379Z,25.31
2018-06-20T07:55:53.390Z,25.40
2018-06-20T07:56:53.390Z,25.35
2018-06-20T07:57:53.394Z,25.31
2018-06-20T07:58:53.399Z,25.29
2018-06-20T07:59:53.411Z,25.29
2018-06-20T08:00:53.449Z,25.16
2018-06-20T08:01:53.415Z,25.18
2018-06-20T08:02:53.419Z,25.13
2018-06-20T08:03:53.430Z,25.17
2018-06-20T08:04:53.432Z,25.14
2018-06-20T08:05:53.452Z,25.07
2018-06-20T08:06:53.442Z,24.99
2018-06-20T08:07:53.445Z,24.88
2018-06-20T08:08:53.458Z,24.89
2018-06-20T08:09:53.456Z,24.91
2018-06-20T08:10:53.461Z,24.95
2018-06-20T08:11:53.474Z,24.91
2018-06-20T08:12:53.477Z,24.88
2018-06-20T08:13:53.476Z,24.76
2018-06-20T08:14:53.480Z,24.91
2018-06-20T08:15:53.486Z,24.76
2018-06-20T08:16:53.493Z,24.76
2018-06-20T08:17:53.498Z,24.74
2018-06-20T08:18:53.537Z,24.78
2018-06-20T08:19:53.505Z,24.80
2018-06-20T08:20:53.512Z,24.86
2018-06-20T08:21:53.518Z,24.91
2018-06-20T08:22:53.520Z,24.96
2018-06-20T08:23:53.536Z,24.93
2018-06-20T08:24:53.531Z,24.85
2018-06-20T08:25:53.620Z,24.84
2018-06-20T08:26:53.544Z,24.78
2018-06-20T08:27:53.544Z,24.77
2018-06-20T08:28:53.552Z,24.69
2018-06-20T08:29:53.619Z,24.89
2018-06-20T08:30:53.560Z,25.65
2018-06-20T08:31:53.565Z,26.52
2018-06-20T08:32:53.570Z,27.48
2018-06-20T08:33:54.269Z,28.38
2018-06-20T08:34:53.588Z,29.08
2018-06-20T08:35:53.614Z,29.39
2018-06-20T08:36:53.593Z,29.51
2018-06-20T08:37:53.598Z,29.36
2018-06-20T08:38:53.605Z,29.79
2018-06-20T08:39:53.608Z,30.31
2018-06-20T08:40:53.634Z,30.88
2018-06-20T08:41:53.623Z,31.29
2018-06-20T08:42:53.629Z,31.87
2018-06-20T08:43:53.651Z,32.31
2018-06-20T08:44:53.642Z,32.60
2018-06-20T08:45:53.648Z,32.97
2018-06-20T08:46:53.662Z,33.23
2018-06-20T08:47:53.665Z,33.49
2018-06-20T08:48:53.672Z,33.87
2018-06-20T08:49:53.682Z,34.27
2018-06-20T08:50:53.686Z,34.57
2018-06-20T08:51:53.695Z,34.90
2018-06-20T08:52:53.707Z,35.11
2018-06-20T08:53:53.715Z,35.23
2018-06-20T08:54:53.724Z,35.22
2018-06-20T08:55:53.740Z,35.39
2018-06-20T08:56:53.737Z,35.60
2018-06-20T08:57:53.747Z,35.79
2018-06-20T08:58:53.758Z,36.12
2018-06-20T08:59:53.768Z,36.25
2018-06-20T09:00:53.824Z,36.28
2018-06-20T09:01:53.794Z,36.64
2018-06-20T09:02:53.794Z,36.72
2018-06-20T09:03:53.890Z,36.91
2018-06-20T09:04:53.813Z,37.17
2018-06-20T09:05:56.869Z,37.55
2018-06-20T09:06:53.838Z,37.70
2018-06-20T09:07:54.837Z,37.82
2018-06-20T09:08:53.857Z,37.97
2018-06-20T09:09:53.868Z,38.20
2018-06-20T09:10:53.886Z,38.38
2018-06-20T09:11:53.895Z,38.50
2018-06-20T09:12:53.899Z,38.65
2018-06-20T09:13:53.909Z,38.64
2018-06-20T09:14:53.921Z,38.77
2018-06-20T09:15:53.933Z,38.86
2018-06-20T09:16:53.945Z,38.62
2018-06-20T09:17:53.959Z,38.57
2018-06-20T09:18:53.968Z,38.68
2018-06-20T09:19:53.980Z,38.65
2018-06-20T09:20:53.991Z,38.74
2018-06-20T09:21:54.067Z,38.76
2018-06-20T09:22:54.017Z,38.11
2018-06-20T09:23:54.030Z,37.87
2018-06-20T09:24:54.042Z,38.26
2018-06-20T09:25:54.057Z,38.80
2018-06-20T09:26:54.068Z,39.17
2018-06-20T09:27:54.078Z,39.63
2018-06-20T09:28:54.092Z,39.87
2018-06-20T09:29:54.120Z,39.63
2018-06-20T09:30:54.124Z,39.63
2018-06-20T09:31:54.134Z,39.77
2018-06-20T09:32:54.142Z,39.60
2018-06-20T09:33:54.155Z,39.24
2018-06-20T09:34:54.167Z,39.25
2018-06-20T09:35:54.193Z,39.51
2018-06-20T09:36:54.193Z,39.81
2018-06-20T09:37:54.252Z,40.11
2018-06-20T09:38:54.221Z,40.46
2018-06-20T09:39:54.233Z,40.78
2018-06-20T09:40:54.249Z,40.84
2018-06-20T09:41:54.261Z,41.02
2018-06-20T09:42:54.275Z,40.88
2018-06-20T09:43:54.291Z,41.09
2018-06-20T09:44:54.310Z,40.63
2018-06-20T09:45:54.355Z,40.41
2018-06-20T09:46:54.336Z,40.49
2018-06-20T09:47:54.368Z,40.82
2018-06-20T09:48:54.363Z,40.26
2018-06-20T09:49:54.384Z,40.35
2018-06-20T09:50:55.180Z,39.89
2018-06-20T09:51:54.406Z,39.53
2018-06-20T09:52:54.421Z,39.78
2018-06-20T09:53:54.435Z,39.65
2018-06-20T09:54:54.450Z,39.37
2018-06-20T09:55:54.465Z,38.80
2018-06-20T09:56:54.572Z,37.87
2018-06-20T09:57:54.610Z,37.13
2018-06-20T09:58:54.513Z,37.55
2018-06-20T09:59:54.565Z,37.89
2018-06-20T10:00:54.566Z,38.28
2018-06-20T10:01:54.549Z,38.65
2018-06-20T10:02:54.564Z,38.83
2018-06-20T10:03:54.580Z,39.11
2018-06-20T10:04:54.590Z,39.72
2018-06-20T10:05:54.604Z,40.24
2018-06-20T10:06:54.747Z,40.77
2018-06-20T10:07:54.635Z,41.24
2018-06-20T10:08:54.646Z,41.36
2018-06-20T10:09:54.665Z,41.62
2018-06-20T10:10:54.702Z,41.94
2018-06-20T10:11:54.690Z,42.14
2018-06-20T10:12:54.704Z,42.36
2018-06-20T10:13:54.724Z,42.51
2018-06-20T10:14:54.740Z,42.81
2018-06-20T10:15:54.753Z,42.72
2018-06-20T10:16:54.808Z,42.50
2018-06-20T10:17:54.785Z,42.57
2018-06-20T10:18:54.799Z,42.89
2018-06-20T10:19:54.821Z,43.07
2018-06-20T10:20:54.838Z,43.15
2018-06-20T10:21:54.872Z,42.97
2018-06-20T10:22:54.867Z,42.78
2018-06-20T10:23:54.900Z,42.81
2018-06-20T10:24:54.909Z,42.97
2018-06-20T10:25:54.927Z,43.04
2018-06-20T10:26:54.941Z,43.23
2018-06-20T10:27:54.953Z,43.23
2018-06-20T10:28:54.973Z,42.86
2018-06-20T10:29:54.988Z,42.91
2018-06-20T10:30:55.006Z,42.97
2018-06-20T10:31:55.022Z,42.94
2018-06-20T10:32:55.039Z,42.99
2018-06-20T10:33:55.066Z,43.28
2018-06-20T10:34:55.087Z,43.26
2018-06-20T10:35:55.098Z,42.85
2018-06-20T10:36:55.110Z,42.72
2018-06-20T10:37:55.127Z,42.06
2018-06-20T10:38:55.148Z,42.02
2018-06-20T10:39:55.186Z,42.25
2018-06-20T10:40:55.181Z,42.21
2018-06-20T10:41:55.197Z,41.98
2018-06-20T10:42:55.216Z,41.15
2018-06-20T10:43:55.233Z,41.50
2018-06-20T10:44:55.250Z,41.25
2018-06-20T10:45:55.278Z,41.38
2018-06-20T10:46:55.286Z,41.75
2018-06-20T10:47:55.308Z,42.17
2018-06-20T10:48:55.321Z,42.66
2018-06-20T10:49:55.337Z,43.18
2018-06-20T10:50:55.353Z,43.77
2018-06-20T10:51:55.401Z,44.15
2018-06-20T10:52:55.392Z,44.36
2018-06-20T10:53:55.407Z,44.51
2018-06-20T10:54:55.426Z,44.47
2018-06-20T10:55:55.444Z,44.45
2018-06-20T10:56:55.460Z,43.86
2018-06-20T10:57:55.478Z,43.87
2018-06-20T10:58:55.497Z,43.08
2018-06-20T10:59:55.515Z,42.09
2018-06-20T11:00:55.533Z,41.19
2018-06-20T11:01:55.551Z,40.31
2018-06-20T11:02:55.568Z,39.25
2018-06-20T11:03:55.591Z,38.58
2018-06-20T11:04:55.600Z,37.84
2018-06-20T11:05:55.624Z,37.58
2018-06-20T11:06:55.667Z,37.93
2018-06-20T11:07:55.649Z,38.76
2018-06-20T11:08:55.662Z,39.37
2018-06-20T11:09:55.678Z,39.85
2018-06-20T11:10:55.695Z,40.56
2018-06-20T11:11:55.709Z,41.34
2018-06-20T11:12:55.726Z,41.44
2018-06-20T11:13:55.793Z,41.56
2018-06-20T11:14:55.758Z,41.68
2018-06-20T11:15:55.775Z,41.82
2018-06-20T11:16:55.787Z,42.06
2018-06-20T11:17:55.805Z,42.19
2018-06-20T11:18:55.822Z,42.47
2018-06-20T11:19:55.839Z,42.66
2018-06-20T11:20:55.858Z,42.88
2018-06-20T11:21:55.872Z,42.94
2018-06-20T11:22:55.888Z,43.04
2018-06-20T11:23:55.905Z,43.49
2018-06-20T11:24:55.929Z,43.99
2018-06-20T11:25:55.945Z,44.56
2018-06-20T11:26:55.960Z,44.94
2018-06-20T11:27:55.978Z,44.67
2018-06-20T11:28:55.995Z,43.42
2018-06-20T11:29:56.017Z,42.10
2018-06-20T11:30:56.034Z,41.18
2018-06-20T11:31:56.059Z,40.35
2018-06-20T11:32:56.077Z,39.63
2018-06-20T11:33:56.087Z,39.17
2018-06-20T11:34:56.102Z,39.19
2018-06-20T11:35:56.117Z,38.87
2018-06-20T11:36:56.133Z,38.33
2018-06-20T11:37:56.149Z,37.75
2018-06-20T11:38:56.162Z,37.48
2018-06-20T11:39:56.181Z,37.28
2018-06-20T11:40:56.194Z,37.47
2018-06-20T11:41:56.206Z,37.20
2018-06-20T11:42:56.222Z,36.98
2018-06-20T11:43:56.233Z,36.67
2018-06-20T11:44:56.245Z,36.39
2018-06-20T11:45:56.259Z,35.98
2018-06-20T11:46:56.277Z,35.71
2018-06-20T11:47:56.284Z,35.64
2018-06-20T11:48:56.294Z,35.36
2018-06-20T11:49:56.371Z,35.27
2018-06-20T11:50:56.432Z,35.15
2018-06-20T11:51:56.353Z,35.11
2018-06-20T11:52:56.340Z,35.02
2018-06-20T11:53:56.367Z,35.07
2018-06-20T11:54:56.366Z,34.97
2018-06-20T11:55:56.377Z,34.90
2018-06-20T11:56:56.392Z,34.78
2018-06-20T11:57:56.403Z,34.62
2018-06-20T11:58:56.410Z,34.70
2018-06-20T11:59:56.418Z,34.58
2018-06-20T12:00:56.456Z,34.64
2018-06-20T12:01:56.506Z,35.46
2018-06-20T12:02:56.451Z,36.54
2018-06-20T12:03:56.463Z,36.89
2018-06-20T12:04:56.474Z,37.06
2018-06-20T12:05:56.491Z,37.21
2018-06-20T12:06:56.492Z,36.93
2018-06-20T12:07:56.503Z,37.30
2018-06-20T12:08:56.520Z,37.96
2018-06-20T12:09:56.531Z,38.55
2018-06-20T12:10:57.258Z,39.21
2018-06-20T12:11:56.557Z,39.81
2018-06-20T12:12:56.563Z,40.53
2018-06-20T12:13:56.573Z,41.33
2018-06-20T12:14:56.587Z,41.68
2018-06-20T12:15:56.620Z,41.88
2018-06-20T12:16:56.722Z,41.97
2018-06-20T12:17:56.624Z,42.19
2018-06-20T12:18:56.646Z,42.45
2018-06-20T12:19:56.657Z,42.88
2018-06-20T12:20:56.667Z,43.20
2018-06-20T12:21:56.706Z,43.42
2018-06-20T12:22:56.706Z,43.28
2018-06-20T12:23:56.716Z,43.60
2018-06-20T12:24:56.728Z,43.80
2018-06-20T12:25:56.789Z,44.26
2018-06-20T12:26:56.760Z,44.69
2018-06-20T12:27:56.796Z,45.12
2018-06-20T12:28:56.796Z,44.64
2018-06-20T12:29:56.813Z,44.65
2018-06-20T12:30:56.835Z,44.86
2018-06-20T12:31:56.847Z,44.11
2018-06-20T12:32:56.871Z,43.19
2018-06-20T12:33:56.879Z,42.54
2018-06-20T12:34:56.897Z,41.95
2018-06-20T12:35:56.926Z,41.37
2018-06-20T12:36:56.984Z,40.62
2018-06-20T12:37:56.946Z,40.51
2018-06-20T12:38:56.964Z,39.89
2018-06-20T12:39:56.976Z,39.34
2018-06-20T12:40:57.051Z,38.97
2018-06-20T12:41:57.007Z,38.50
2018-06-20T12:42:57.025Z,38.31
2018-06-20T12:43:57.034Z,38.15
2018-06-20T12:44:57.048Z,37.82
2018-06-20T12:45:57.061Z,37.68
2018-06-20T12:46:57.187Z,37.29
2018-06-20T12:47:57.091Z,36.88
2018-06-20T12:48:57.099Z,36.67
2018-06-20T12:49:57.122Z,36.96
2018-06-20T12:50:57.125Z,36.64
2018-06-20T12:51:57.135Z,36.72
2018-06-20T12:52:57.148Z,36.55